Time;durP1;ratioP1;P1;durP2;ratioP2;P2;SDS_P1;SDS_P2;PMS_P1;PMS_P2;Temp;Humidity;BMP_temperature;BMP_pressure;BME280_temperature;BME280_humidity;BME280_pressure;Samples;Min_cycle;Max_cycle;Signal;HPM_P1;HPM_P2
2021/06/15 00:00:26;;;;;;;;;;;16.90;81.40;;;;;;5056236;28;20369;-75
2021/06/15 00:02:52;;;;;;;;;;;16.90;80.90;;;;;;5067109;28;19946;-74
2021/06/15 00:05:18;;;;;;;;;;;17.10;80.20;;;;;;5038590;28;19917;-73
2021/06/15 00:07:44;;;;;;;;;;;17.30;79.10;;;;;;5056075;28;19936;-74
2021/06/15 00:10:11;;;;;;;;;;;17.30;79.10;;;;;;5055678;28;19919;-75
2021/06/15 00:12:36;;;;;;;;;;;17.20;79.40;;;;;;5065970;28;19916;-76
2021/06/15 00:15:02;;;;;;;;;;;17.20;79.20;;;;;;5056462;28;19913;-75
2021/06/15 00:17:28;;;;;;;;;;;17.30;78.40;;;;;;5058622;28;20015;-75
2021/06/15 00:19:53;;;;;;;;;;;17.40;78.10;;;;;;5055688;28;19920;-76
2021/06/15 00:22:19;;;;;;;;;;;17.40;78.50;;;;;;5068155;28;19916;-76
2021/06/15 00:24:44;;;;;;;;;;;17.40;78.50;;;;;;5075440;28;19912;-75
2021/06/15 00:27:10;;;;;;;;;;;17.30;78.50;;;;;;5075463;28;19917;-76
2021/06/15 00:29:35;;;;;;;;;;;17.20;78.60;;;;;;5074990;28;20342;-76
2021/06/15 00:32:01;;;;;;;;;;;17.30;78.90;;;;;;5075503;28;19912;-75
2021/06/15 00:34:26;;;;;;;;;;;17.20;79.30;;;;;;5075106;28;20343;-75
2021/06/15 00:36:52;;;;;;;;;;;17.00;80.00;;;;;;5068115;28;19913;-75
2021/06/15 00:39:17;;;;;;;;;;;16.90;79.80;;;;;;5054655;28;19971;-75
2021/06/15 00:41:43;;;;;;;;;;;17.00;79.80;;;;;;5072136;28;20383;-75
2021/06/15 00:44:09;;;;;;;;;;;16.90;80.70;;;;;;5074723;28;19920;-76
2021/06/15 00:46:35;;;;;;;;;;;16.70;80.70;;;;;;5074239;28;19913;-75
2021/06/15 00:49:01;;;;;;;;;;;16.60;81.60;;;;;;5042104;28;19919;-76
2021/06/15 00:51:26;;;;;;;;;;;16.50;81.20;;;;;;5057081;28;19924;-76
2021/06/15 00:53:52;;;;;;;;;;;16.50;81.70;;;;;;5075317;28;19916;-76
2021/06/15 00:56:17;;;;;;;;;;;16.50;80.60;;;;;;5075264;28;20304;-76
2021/06/15 00:58:43;;;;;;;;;;;16.60;80.50;;;;;;5072235;28;19997;-75
2021/06/15 01:01:08;;;;;;;;;;;16.60;80.70;;;;;;5057083;28;19952;-77
2021/06/15 01:03:34;;;;;;;;;;;16.60;80.70;;;;;;5074936;28;19917;-76
2021/06/15 01:06:02;;;;;;;;;;;16.60;81.00;;;;;;5064398;28;19924;-75
2021/06/15 01:08:39;;;;;;;;;;;16.70;80.50;;;;;;5065185;28;19917;-76
2021/06/15 01:11:19;;;;;;;;;;;16.60;81.20;;;;;;5057765;28;19916;-76
2021/06/15 01:14:14;;;;;;;;;;;16.40;82.40;;;;;;5058910;28;19915;-75
2021/06/15 01:17:03;;;;;;;;;;;16.20;81.90;;;;;;5067583;28;19918;-75
2021/06/15 01:19:29;;;;;;;;;;;16.20;81.60;;;;;;5079095;28;19916;-75
2021/06/15 01:22:07;;;;;;;;;;;16.30;81.20;;;;;;5077140;28;19963;-76
2021/06/15 01:24:35;;;;;;;;;;;16.40;80.60;;;;;;5060624;28;19942;-73
2021/06/15 01:27:20;;;;;;;;;;;16.50;80.00;;;;;;5060344;28;19970;-75
2021/06/15 01:29:46;;;;;;;;;;;16.70;79.60;;;;;;5059442;28;20305;-75
2021/06/15 01:32:19;;;;;;;;;;;16.60;80.60;;;;;;5078310;28;19923;-75
2021/06/15 01:34:45;;;;;;;;;;;16.40;81.10;;;;;;5077840;28;19917;-75
2021/06/15 01:37:43;;;;;;;;;;;16.20;82.20;;;;;;5076733;28;19920;-75
2021/06/15 01:40:17;;;;;;;;;;;16.00;83.90;;;;;;5016905;28;19913;-75
2021/06/15 01:42:46;;;;;;;;;;;15.60;84.50;;;;;;5068659;28;19916;-76
2021/06/15 01:45:19;;;;;;;;;;;15.40;85.40;;;;;;5064246;28;19922;-76
2021/06/15 01:48:07;;;;;;;;;;;15.30;85.60;;;;;;5077263;28;19916;-75
2021/06/15 01:50:34;;;;;;;;;;;15.40;85.10;;;;;;5076787;28;19919;-76
2021/06/15 01:53:01;;;;;;;;;;;15.40;84.80;;;;;;5077529;28;19912;-75
2021/06/15 01:55:28;;;;;;;;;;;15.50;84.50;;;;;;5076736;28;19939;-76
2021/06/15 01:57:54;;;;;;;;;;;15.50;84.70;;;;;;5068768;28;19952;-76
2021/06/15 02:00:20;;;;;;;;;;;15.50;84.70;;;;;;5074289;28;19963;-75
2021/06/15 02:02:48;;;;;;;;;;;15.30;85.70;;;;;;5059541;28;19912;-74
2021/06/15 02:05:14;;;;;;;;;;;15.20;85.60;;;;;;5076145;28;20015;-77
2021/06/15 02:07:41;;;;;;;;;;;15.10;86.10;;;;;;5076737;28;19948;-75
2021/06/15 02:10:12;;;;;;;;;;;14.90;87.70;;;;;;5077110;28;20014;-75
2021/06/15 02:12:40;;;;;;;;;;;14.60;88.50;;;;;;5058059;28;20011;-77
2021/06/15 02:15:07;;;;;;;;;;;14.30;89.30;;;;;;5077451;28;20026;-76
2021/06/15 02:17:33;;;;;;;;;;;14.00;90.00;;;;;;5071098;28;19919;-75
2021/06/15 02:19:59;;;;;;;;;;;13.90;90.70;;;;;;5046835;28;19987;-76
2021/06/15 02:22:24;;;;;;;;;;;13.80;90.80;;;;;;5052876;28;19921;-75
2021/06/15 02:24:51;;;;;;;;;;;13.80;90.40;;;;;;5069090;28;20369;-76
2021/06/15 02:27:19;;;;;;;;;;;13.70;90.80;;;;;;5066366;28;19939;-76
2021/06/15 02:29:44;;;;;;;;;;;13.60;91.00;;;;;;5076749;28;20344;-76
2021/06/15 02:32:11;;;;;;;;;;;13.60;90.80;;;;;;5077111;28;19956;-75
2021/06/15 02:34:41;;;;;;;;;;;13.60;90.60;;;;;;5076937;28;19916;-75
2021/06/15 02:37:10;;;;;;;;;;;13.60;91.00;;;;;;5070789;28;19912;-75
2021/06/15 02:39:36;;;;;;;;;;;13.60;91.30;;;;;;5058567;28;19935;-75
2021/06/15 02:42:03;;;;;;;;;;;13.50;91.70;;;;;;5058488;28;19913;-75
2021/06/15 02:44:31;;;;;;;;;;;13.50;91.80;;;;;;5076341;28;19961;-75
2021/06/15 02:46:57;;;;;;;;;;;13.40;92.10;;;;;;5045077;28;19916;-75
2021/06/15 02:49:43;;;;;;;;;;;13.30;92.10;;;;;;5056959;28;19913;-75
2021/06/15 02:52:18;;;;;;;;;;;13.20;92.20;;;;;;5052705;28;19920;-75
2021/06/15 02:54:45;;;;;;;;;;;13.20;92.30;;;;;;5058624;28;19912;-75
2021/06/15 02:57:12;;;;;;;;;;;13.20;92.40;;;;;;5049506;28;19916;-75
2021/06/15 02:59:38;;;;;;;;;;;13.10;92.40;;;;;;5076858;28;20004;-76
2021/06/15 03:02:03;;;;;;;;;;;13.10;92.40;;;;;;5076074;28;19999;-75
2021/06/15 03:04:29;;;;;;;;;;;13.10;92.60;;;;;;5076546;28;19919;-75
2021/06/15 03:06:55;;;;;;;;;;;13.00;92.70;;;;;;5074697;28;19987;-75
2021/06/15 03:09:20;;;;;;;;;;;12.90;92.90;;;;;;5075864;28;19913;-76
2021/06/15 03:12:06;;;;;;;;;;;12.80;92.80;;;;;;5076044;28;19919;-76
2021/06/15 03:14:32;;;;;;;;;;;12.80;93.00;;;;;;5050304;28;19913;-76
2021/06/15 03:17:01;;;;;;;;;;;12.60;93.10;;;;;;5074684;28;19912;-75
2021/06/15 03:19:29;;;;;;;;;;;12.60;93.30;;;;;;5069916;28;19966;-76
2021/06/15 03:22:06;;;;;;;;;;;12.60;93.40;;;;;;5066198;28;19925;-76
2021/06/15 03:24:32;;;;;;;;;;;12.60;93.50;;;;;;5068260;28;19917;-75
2021/06/15 03:27:05;;;;;;;;;;;12.60;93.20;;;;;;5069641;28;19920;-75
2021/06/15 03:29:33;;;;;;;;;;;12.80;92.60;;;;;;5066370;28;19920;-74
2021/06/15 03:32:02;;;;;;;;;;;12.90;92.50;;;;;;5075980;28;19917;-75
2021/06/15 03:34:29;;;;;;;;;;;13.00;92.10;;;;;;5057291;28;20007;-76
2021/06/15 03:36:56;;;;;;;;;;;13.00;92.30;;;;;;5054653;28;19909;-75
2021/06/15 03:39:23;;;;;;;;;;;12.90;92.50;;;;;;5039251;28;19960;-75
2021/06/15 03:41:51;;;;;;;;;;;12.90;92.20;;;;;;5075533;28;19923;-75
2021/06/15 03:44:19;;;;;;;;;;;13.10;91.90;;;;;;5057402;28;19917;-75
2021/06/15 03:46:45;;;;;;;;;;;13.10;92.00;;;;;;5057464;28;19920;-76
2021/06/15 03:49:11;;;;;;;;;;;13.10;91.80;;;;;;5073671;28;19917;-75
2021/06/15 03:51:39;;;;;;;;;;;13.10;91.90;;;;;;5074119;28;20216;-76
2021/06/15 03:54:10;;;;;;;;;;;13.10;92.00;;;;;;5056525;28;19912;-75
2021/06/15 03:56:38;;;;;;;;;;;13.00;92.40;;;;;;5075132;28;20197;-76
2021/06/15 03:59:05;;;;;;;;;;;13.00;92.20;;;;;;5057334;28;20328;-75
2021/06/15 04:01:32;;;;;;;;;;;13.20;91.80;;;;;;5055445;28;19912;-74
2021/06/15 04:03:59;;;;;;;;;;;13.30;91.80;;;;;;5060386;28;19913;-75
2021/06/15 04:06:24;;;;;;;;;;;13.40;91.40;;;;;;5059697;28;19912;-75
2021/06/15 04:08:52;;;;;;;;;;;13.40;91.30;;;;;;5075199;28;19920;-75
2021/06/15 04:11:18;;;;;;;;;;;13.40;91.50;;;;;;5073464;28;19923;-75
2021/06/15 04:13:44;;;;;;;;;;;13.40;91.20;;;;;;5074782;28;19912;-76
2021/06/15 04:16:12;;;;;;;;;;;13.60;90.50;;;;;;5073330;28;20305;-75
2021/06/15 04:18:40;;;;;;;;;;;13.70;90.40;;;;;;5069916;28;19920;-75
2021/06/15 04:21:06;;;;;;;;;;;13.70;90.20;;;;;;5057317;28;20320;-76
2021/06/15 04:23:44;;;;;;;;;;;13.80;90.00;;;;;;5074939;28;20015;-76
2021/06/15 04:26:10;;;;;;;;;;;13.80;90.30;;;;;;5065091;28;19917;-76
2021/06/15 04:28:37;;;;;;;;;;;13.60;90.80;;;;;;5062817;28;19942;-76
2021/06/15 04:31:03;;;;;;;;;;;13.60;91.30;;;;;;5070352;28;20312;-76
2021/06/15 04:33:29;;;;;;;;;;;13.60;91.10;;;;;;5071603;28;19990;-76
2021/06/15 04:36:01;;;;;;;;;;;13.70;90.80;;;;;;5057660;28;19913;-76
2021/06/15 04:38:40;;;;;;;;;;;13.90;90.40;;;;;;5070583;28;19916;-76
2021/06/15 04:41:15;;;;;;;;;;;14.00;90.10;;;;;;5071498;28;20328;-76
2021/06/15 04:43:40;;;;;;;;;;;14.00;90.10;;;;;;5068699;28;20379;-75
2021/06/15 04:46:12;;;;;;;;;;;14.00;90.40;;;;;;5077370;28;19999;-76
2021/06/15 04:48:41;;;;;;;;;;;14.10;90.40;;;;;;5060805;28;19920;-75
2021/06/15 04:51:08;;;;;;;;;;;14.20;90.10;;;;;;5076925;28;19917;-77
2021/06/15 04:53:38;;;;;;;;;;;14.20;89.80;;;;;;5074752;28;19912;-75
2021/06/15 04:56:04;;;;;;;;;;;14.20;90.20;;;;;;5060980;28;19920;-75
2021/06/15 04:58:31;;;;;;;;;;;14.20;90.60;;;;;;5079020;28;19912;-75
2021/06/15 05:00:57;;;;;;;;;;;14.20;91.50;;;;;;5074262;28;19920;-76
2021/06/15 05:03:22;;;;;;;;;;;14.20;91.90;;;;;;5055886;28;19919;-74
2021/06/15 05:05:49;;;;;;;;;;;14.20;92.00;;;;;;5077020;28;19913;-75
2021/06/15 05:08:18;;;;;;;;;;;14.20;92.20;;;;;;5078907;28;19916;-76
2021/06/15 05:10:45;;;;;;;;;;;14.40;92.40;;;;;;5075668;28;19924;-75
2021/06/15 05:13:14;;;;;;;;;;;14.40;92.50;;;;;;5060161;28;19916;-76
2021/06/15 05:15:42;;;;;;;;;;;14.40;92.60;;;;;;5071485;28;19913;-77
2021/06/15 05:18:08;;;;;;;;;;;14.50;92.70;;;;;;5077662;28;19921;-75
2021/06/15 05:20:34;;;;;;;;;;;14.60;92.60;;;;;;5074371;28;19928;-74
2021/06/15 05:23:05;;;;;;;;;;;14.70;92.60;;;;;;5072532;28;20320;-76
2021/06/15 05:25:32;;;;;;;;;;;14.80;92.40;;;;;;5039693;28;21827;-75
2021/06/15 05:27:57;;;;;;;;;;;14.90;92.70;;;;;;5074135;28;19919;-75
2021/06/15 05:30:23;;;;;;;;;;;15.00;92.90;;;;;;5067224;28;19921;-76
2021/06/15 05:32:49;;;;;;;;;;;15.20;92.80;;;;;;5056185;28;20505;-75
2021/06/15 05:35:14;;;;;;;;;;;15.40;92.60;;;;;;5065797;28;19920;-76
2021/06/15 05:37:41;;;;;;;;;;;15.60;92.50;;;;;;5075466;28;19920;-73
2021/06/15 05:40:07;;;;;;;;;;;15.70;91.40;;;;;;5078272;28;19920;-74
2021/06/15 05:42:32;;;;;;;;;;;15.80;89.90;;;;;;5068978;28;20379;-74
2021/06/15 05:44:58;;;;;;;;;;;16.00;89.90;;;;;;5066474;28;19912;-75
2021/06/15 05:47:25;;;;;;;;;;;16.20;90.10;;;;;;5077307;28;19962;-74
2021/06/15 05:49:50;;;;;;;;;;;16.40;89.50;;;;;;5059998;28;19916;-74
2021/06/15 05:52:16;;;;;;;;;;;16.60;88.60;;;;;;5069283;28;19928;-75
2021/06/15 05:54:41;;;;;;;;;;;16.70;88.00;;;;;;5078180;28;19916;-74
2021/06/15 05:57:07;;;;;;;;;;;16.90;87.30;;;;;;5065308;28;19999;-74
2021/06/15 05:59:33;;;;;;;;;;;17.10;86.80;;;;;;5071859;28;19920;-74
2021/06/15 06:01:59;;;;;;;;;;;17.20;86.60;;;;;;5067106;28;19917;-74
2021/06/15 06:04:36;;;;;;;;;;;17.40;85.50;;;;;;5073980;28;19920;-74
2021/06/15 06:09:46;;;;;;;;;;;17.70;84.00;;;;;;5067178;28;19973;-74
2021/06/15 06:12:15;;;;;;;;;;;17.90;84.50;;;;;;5059511;28;20006;-75
2021/06/15 06:14:40;;;;;;;;;;;18.10;84.00;;;;;;5072360;28;19919;-74
2021/06/15 06:17:08;;;;;;;;;;;18.30;83.50;;;;;;5068394;28;19920;-75
2021/06/15 06:19:33;;;;;;;;;;;18.40;83.70;;;;;;5069488;28;19939;-74
2021/06/15 06:21:59;;;;;;;;;;;18.60;82.90;;;;;;5072946;28;20325;-74
2021/06/15 06:24:25;;;;;;;;;;;18.70;83.30;;;;;;5070350;28;19920;-74
2021/06/15 06:26:51;;;;;;;;;;;18.80;83.90;;;;;;5073050;28;19912;-74
2021/06/15 06:29:17;;;;;;;;;;;18.90;83.30;;;;;;5073754;28;19917;-75
2021/06/15 06:31:43;;;;;;;;;;;19.00;82.20;;;;;;5075838;28;19916;-75
2021/06/15 06:34:09;;;;;;;;;;;19.00;82.40;;;;;;5075310;28;19917;-74
2021/06/15 06:36:35;;;;;;;;;;;19.10;82.40;;;;;;5073050;28;19951;-74
2021/06/15 06:39:02;;;;;;;;;;;19.10;82.40;;;;;;5074776;28;19952;-74
2021/06/15 06:41:28;;;;;;;;;;;19.20;81.60;;;;;;5076052;28;19943;-74
2021/06/15 06:43:54;;;;;;;;;;;19.30;82.60;;;;;;5065258;28;19923;-74
2021/06/15 06:46:19;;;;;;;;;;;19.50;82.00;;;;;;5073269;28;19943;-74
2021/06/15 06:48:45;;;;;;;;;;;19.70;79.80;;;;;;5074432;28;19921;-73
2021/06/15 06:51:10;;;;;;;;;;;19.70;79.10;;;;;;5071836;28;19927;-74
2021/06/15 06:53:37;;;;;;;;;;;19.60;80.30;;;;;;5069988;28;19916;-74
2021/06/15 06:56:04;;;;;;;;;;;19.80;80.40;;;;;;5070583;28;20309;-73
2021/06/15 06:58:29;;;;;;;;;;;20.00;79.90;;;;;;5069601;28;19918;-74
2021/06/15 07:00:55;;;;;;;;;;;20.10;80.60;;;;;;5076314;28;19912;-74
2021/06/15 07:03:20;;;;;;;;;;;20.20;81.10;;;;;;5075473;28;19944;-74
2021/06/15 07:05:46;;;;;;;;;;;20.30;82.30;;;;;;5067982;28;19940;-74
2021/06/15 07:08:11;;;;;;;;;;;20.40;82.50;;;;;;5056766;28;20010;-74
2021/06/15 07:10:37;;;;;;;;;;;20.50;82.60;;;;;;5044638;28;20000;-75
2021/06/15 07:13:02;;;;;;;;;;;20.60;82.20;;;;;;5074984;28;19940;-74
2021/06/15 07:15:29;;;;;;;;;;;20.70;81.10;;;;;;5075220;28;19912;-75
2021/06/15 07:17:54;;;;;;;;;;;20.70;82.00;;;;;;5074889;28;20040;-76
2021/06/15 07:20:20;;;;;;;;;;;20.80;81.70;;;;;;5073912;28;20630;-75
2021/06/15 07:22:45;;;;;;;;;;;21.10;81.70;;;;;;5075157;28;19999;-76
2021/06/15 07:25:11;;;;;;;;;;;21.80;80.60;;;;;;5075824;28;19916;-74
2021/06/15 07:27:37;;;;;;;;;;;23.00;77.70;;;;;;5068853;28;19942;-76
2021/06/15 07:30:06;;;;;;;;;;;24.50;73.30;;;;;;5074854;28;19913;-76
2021/06/15 07:32:31;;;;;;;;;;;25.70;70.40;;;;;;5074197;28;20004;-76
2021/06/15 07:34:57;;;;;;;;;;;26.80;68.40;;;;;;5073377;28;20291;-75
2021/06/15 07:37:23;;;;;;;;;;;27.60;65.60;;;;;;5072783;28;19991;-75
2021/06/15 07:39:49;;;;;;;;;;;27.80;64.50;;;;;;5056071;28;19944;-76
2021/06/15 07:42:14;;;;;;;;;;;27.90;65.40;;;;;;5056519;28;19941;-75
2021/06/15 07:44:40;;;;;;;;;;;27.80;64.30;;;;;;5069959;28;19917;-75
2021/06/15 07:47:06;;;;;;;;;;;28.40;62.20;;;;;;5062599;28;19921;-76
2021/06/15 07:49:31;;;;;;;;;;;27.90;63.20;;;;;;5067030;28;20290;-76
2021/06/15 07:51:57;;;;;;;;;;;27.90;63.70;;;;;;5056211;28;20316;-75
2021/06/15 07:54:23;;;;;;;;;;;28.10;63.20;;;;;;5055738;28;19913;-75
2021/06/15 07:56:48;;;;;;;;;;;27.70;63.50;;;;;;5069422;28;20248;-75
2021/06/15 07:59:14;;;;;;;;;;;28.10;63.30;;;;;;5067079;28;19916;-76
2021/06/15 08:01:40;;;;;;;;;;;28.70;62.70;;;;;;5063207;28;20304;-75
2021/06/15 08:04:06;;;;;;;;;;;29.00;62.00;;;;;;5056412;28;19916;-75
2021/06/15 08:06:33;;;;;;;;;;;29.30;60.50;;;;;;5061535;28;19951;-75
2021/06/15 08:08:59;;;;;;;;;;;29.30;60.80;;;;;;5067727;28;19958;-75
2021/06/15 08:11:24;;;;;;;;;;;29.10;60.70;;;;;;5066636;28;20633;-76
2021/06/15 08:13:50;;;;;;;;;;;29.00;62.10;;;;;;5063584;28;19999;-74
2021/06/15 08:16:16;;;;;;;;;;;29.70;61.40;;;;;;5057962;28;19913;-75
2021/06/15 08:18:42;;;;;;;;;;;29.60;60.40;;;;;;5060666;28;20224;-75
2021/06/15 08:21:07;;;;;;;;;;;29.70;60.80;;;;;;5053721;28;19927;-75
2021/06/15 08:23:33;;;;;;;;;;;30.00;59.80;;;;;;5055481;28;20294;-75
2021/06/15 08:25:58;;;;;;;;;;;30.80;59.60;;;;;;5070235;28;19966;-76
2021/06/15 08:28:24;;;;;;;;;;;31.30;57.30;;;;;;5070593;28;19913;-76
2021/06/15 08:30:51;;;;;;;;;;;31.40;57.90;;;;;;5073583;28;19927;-75
2021/06/15 08:33:17;;;;;;;;;;;31.70;56.40;;;;;;5073844;28;19916;-75
2021/06/15 08:35:43;;;;;;;;;;;32.10;56.80;;;;;;5065513;28;19924;-76
2021/06/15 08:38:08;;;;;;;;;;;32.10;55.60;;;;;;5051761;28;19912;-75
2021/06/15 08:40:34;;;;;;;;;;;32.10;54.50;;;;;;5071351;28;19913;-76
2021/06/15 08:43:00;;;;;;;;;;;32.00;54.70;;;;;;5056124;28;19916;-75
2021/06/15 08:45:25;;;;;;;;;;;31.90;55.30;;;;;;5069172;28;19924;-76
2021/06/15 08:47:52;;;;;;;;;;;31.60;55.90;;;;;;5055299;28;19920;-75
2021/06/15 08:50:19;;;;;;;;;;;31.50;55.50;;;;;;5054444;28;19927;-76
2021/06/15 08:52:45;;;;;;;;;;;31.50;56.70;;;;;;5055083;28;19930;-75
2021/06/15 08:55:12;;;;;;;;;;;31.90;54.00;;;;;;5059249;28;20367;-76
2021/06/15 08:57:38;;;;;;;;;;;32.10;53.40;;;;;;5075331;28;19954;-76
2021/06/15 09:00:05;;;;;;;;;;;32.50;51.60;;;;;;5064896;28;19924;-75
2021/06/15 09:02:30;;;;;;;;;;;33.20;51.20;;;;;;5053213;28;19912;-76
2021/06/15 09:04:56;;;;;;;;;;;33.40;50.40;;;;;;5073341;28;19962;-76
2021/06/15 09:07:22;;;;;;;;;;;33.30;49.10;;;;;;5070597;28;19919;-76
2021/06/15 09:09:48;;;;;;;;;;;32.60;51.10;;;;;;5067626;28;19974;-75
2021/06/15 09:12:15;;;;;;;;;;;32.40;50.70;;;;;;5074903;28;19913;-75
2021/06/15 09:14:40;;;;;;;;;;;32.40;49.50;;;;;;5075147;28;20201;-76
2021/06/15 09:17:08;;;;;;;;;;;32.30;50.70;;;;;;5072287;28;19920;-76
2021/06/15 09:19:38;;;;;;;;;;;31.70;48.90;;;;;;5074850;28;19943;-76
2021/06/15 09:22:04;;;;;;;;;;;31.80;49.80;;;;;;5073781;28;20316;-75
2021/06/15 09:24:29;;;;;;;;;;;32.20;49.40;;;;;;5072409;28;19924;-75
2021/06/15 09:27:08;;;;;;;;;;;33.00;48.40;;;;;;5060115;28;19923;-76
2021/06/15 09:29:34;;;;;;;;;;;33.40;47.00;;;;;;5070358;28;19912;-76
2021/06/15 09:31:59;;;;;;;;;;;32.90;47.20;;;;;;5051355;28;19908;-75
2021/06/15 09:34:25;;;;;;;;;;;33.00;47.80;;;;;;5058747;28;20111;-76
2021/06/15 09:36:52;;;;;;;;;;;33.00;47.40;;;;;;5060951;28;19912;-76
2021/06/15 09:39:17;;;;;;;;;;;33.00;47.00;;;;;;5073656;28;19913;-76
2021/06/15 09:41:44;;;;;;;;;;;33.20;46.90;;;;;;5068922;28;20006;-76
2021/06/15 09:44:14;;;;;;;;;;;33.30;45.40;;;;;;5055638;28;19916;-76
2021/06/15 09:46:49;;;;;;;;;;;33.10;45.60;;;;;;5040867;28;19999;-76
2021/06/15 09:49:27;;;;;;;;;;;33.00;44.60;;;;;;5065678;28;19912;-76
2021/06/15 09:52:13;;;;;;;;;;;32.90;44.80;;;;;;5060934;28;19916;-76
2021/06/15 09:54:41;;;;;;;;;;;33.10;43.80;;;;;;5062124;28;19965;-77
2021/06/15 09:57:13;;;;;;;;;;;33.30;44.00;;;;;;5055036;28;19909;-75
2021/06/15 09:59:58;;;;;;;;;;;33.00;45.10;;;;;;5059607;28;19924;-75
2021/06/15 10:02:24;;;;;;;;;;;32.90;45.40;;;;;;5076984;28;19908;-77
2021/06/15 10:04:50;;;;;;;;;;;33.40;44.80;;;;;;5078218;28;19919;-76
2021/06/15 10:07:29;;;;;;;;;;;32.70;45.00;;;;;;5066808;28;19916;-76
2021/06/15 10:09:55;;;;;;;;;;;32.70;46.50;;;;;;5074844;28;20003;-79
2021/06/15 10:12:22;;;;;;;;;;;32.40;45.10;;;;;;5059223;28;20366;-76
2021/06/15 10:14:47;;;;;;;;;;;31.90;50.10;;;;;;5054449;28;19982;-77
2021/06/15 10:17:13;;;;;;;;;;;31.30;49.00;;;;;;5066451;28;19960;-75
2021/06/15 10:19:39;;;;;;;;;;;31.60;48.50;;;;;;5077394;28;19919;-76
2021/06/15 10:22:06;;;;;;;;;;;32.20;46.10;;;;;;5074465;28;19934;-76
2021/06/15 10:24:32;;;;;;;;;;;32.20;46.20;;;;;;5057555;28;20300;-75
2021/06/15 10:26:58;;;;;;;;;;;32.30;46.00;;;;;;5058050;28;19956;-75
2021/06/15 10:29:25;;;;;;;;;;;32.40;47.00;;;;;;5066329;28;19967;-75
2021/06/15 10:31:52;;;;;;;;;;;31.80;46.20;;;;;;5073745;28;19916;-75
2021/06/15 10:34:47;;;;;;;;;;;31.50;49.80;;;;;;5055745;28;20007;-76
2021/06/15 10:37:31;;;;;;;;;;;32.10;47.80;;;;;;5042489;28;20316;-75
2021/06/15 10:39:57;;;;;;;;;;;31.70;45.50;;;;;;5058708;28;19964;-76
2021/06/15 10:42:23;;;;;;;;;;;31.60;47.00;;;;;;5059180;28;19920;-75
2021/06/15 10:45:07;;;;;;;;;;;31.60;47.50;;;;;;5066740;28;19913;-75
2021/06/15 10:47:34;;;;;;;;;;;31.70;47.60;;;;;;5065078;28;19920;-75
2021/06/15 10:50:00;;;;;;;;;;;31.70;48.70;;;;;;5068927;28;19923;-76
2021/06/15 10:52:26;;;;;;;;;;;31.40;48.40;;;;;;5071054;28;19917;-75
2021/06/15 10:54:52;;;;;;;;;;;31.30;47.90;;;;;;5076257;28;19912;-75
2021/06/15 10:57:18;;;;;;;;;;;31.50;51.40;;;;;;5076824;28;19982;-74
2021/06/15 10:59:59;;;;;;;;;;;31.90;48.20;;;;;;5076046;28;20034;-74
2021/06/15 11:02:32;;;;;;;;;;;31.80;46.90;;;;;;5049372;28;19912;-74
2021/06/15 11:05:18;;;;;;;;;;;31.60;48.80;;;;;;5076062;28;19919;-75
2021/06/15 11:07:43;;;;;;;;;;;31.30;50.60;;;;;;5024907;28;19974;-74
2021/06/15 11:10:09;;;;;;;;;;;31.10;51.00;;;;;;5059562;28;19917;-75
2021/06/15 11:12:47;;;;;;;;;;;31.50;48.90;;;;;;5068125;28;19916;-74
2021/06/15 11:15:14;;;;;;;;;;;31.50;47.40;;;;;;5057675;28;20007;-75
2021/06/15 11:17:46;;;;;;;;;;;31.10;51.70;;;;;;5066447;28;19912;-76
2021/06/15 11:20:12;;;;;;;;;;;32.00;49.20;;;;;;5066304;28;19920;-75
2021/06/15 11:22:38;;;;;;;;;;;32.10;47.40;;;;;;5056231;28;19966;-74
2021/06/15 11:25:05;;;;;;;;;;;31.60;46.40;;;;;;5058449;28;20260;-75
2021/06/15 11:27:34;;;;;;;;;;;31.80;46.90;;;;;;5069779;28;19913;-75
2021/06/15 11:30:12;;;;;;;;;;;31.90;47.10;;;;;;5076165;28;19920;-75
2021/06/15 11:32:38;;;;;;;;;;;32.20;50.30;;;;;;5058457;28;20011;-75
2021/06/15 11:35:03;;;;;;;;;;;32.90;47.00;;;;;;5075842;28;20324;-75
2021/06/15 11:37:33;;;;;;;;;;;33.20;46.40;;;;;;5074942;28;20229;-75
2021/06/15 11:40:10;;;;;;;;;;;32.40;45.90;;;;;;5076503;28;19924;-75
2021/06/15 11:42:36;;;;;;;;;;;32.10;47.10;;;;;;5075944;28;19912;-75
2021/06/15 11:45:02;;;;;;;;;;;32.00;47.30;;;;;;5076533;28;19927;-75
2021/06/15 11:47:47;;;;;;;;;;;31.40;47.80;;;;;;5070110;28;19916;-75
2021/06/15 11:50:24;;;;;;;;;;;31.30;48.80;;;;;;5067685;28;19916;-75
2021/06/15 11:52:55;;;;;;;;;;;31.70;46.60;;;;;;5057925;28;19917;-75
2021/06/15 11:55:25;;;;;;;;;;;31.60;48.40;;;;;;5075656;28;20294;-75
2021/06/15 11:57:55;;;;;;;;;;;31.90;46.10;;;;;;5073567;28;19918;-75
2021/06/15 12:00:21;;;;;;;;;;;31.80;44.70;;;;;;5059411;28;19912;-75
2021/06/15 12:02:47;;;;;;;;;;;31.60;44.30;;;;;;5075688;28;19916;-74
2021/06/15 12:05:14;;;;;;;;;;;31.60;45.40;;;;;;5058399;28;19912;-75
2021/06/15 12:07:40;;;;;;;;;;;31.70;44.80;;;;;;5074303;28;19995;-75
2021/06/15 12:10:07;;;;;;;;;;;32.00;47.20;;;;;;5067657;28;19967;-75
2021/06/15 12:12:51;;;;;;;;;;;32.00;46.00;;;;;;5056600;28;20337;-75
2021/06/15 12:15:27;;;;;;;;;;;31.50;42.80;;;;;;5071196;28;19908;-75
2021/06/15 12:17:52;;;;;;;;;;;31.30;46.80;;;;;;5058226;28;19958;-75
2021/06/15 12:20:22;;;;;;;;;;;31.70;44.50;;;;;;5059218;28;19924;-75
2021/06/15 12:22:48;;;;;;;;;;;32.10;46.80;;;;;;5055833;28;19915;-75
2021/06/15 12:25:13;;;;;;;;;;;32.30;46.30;;;;;;5068321;28;20267;-75
2021/06/15 12:27:39;;;;;;;;;;;32.50;48.50;;;;;;5075641;28;20365;-75
2021/06/15 12:30:05;;;;;;;;;;;32.50;45.90;;;;;;5071866;28;20175;-74
2021/06/15 12:32:44;;;;;;;;;;;32.20;48.30;;;;;;5074639;28;19912;-75
2021/06/15 12:35:19;;;;;;;;;;;32.20;45.50;;;;;;5043056;28;20272;-75
2021/06/15 12:37:45;;;;;;;;;;;31.70;47.90;;;;;;5061433;28;19908;-75
2021/06/15 12:40:11;;;;;;;;;;;31.50;47.30;;;;;;5071751;28;19958;-75
2021/06/15 12:42:38;;;;;;;;;;;31.40;48.10;;;;;;5073587;28;19963;-75
2021/06/15 12:45:04;;;;;;;;;;;31.70;47.20;;;;;;5057833;28;20357;-75
2021/06/15 12:47:30;;;;;;;;;;;32.30;46.10;;;;;;5075776;28;19959;-75
2021/06/15 12:49:56;;;;;;;;;;;32.40;45.20;;;;;;5074472;28;19931;-75
2021/06/15 12:52:32;;;;;;;;;;;32.30;48.90;;;;;;5062501;28;20418;-75
2021/06/15 12:55:08;;;;;;;;;;;32.20;46.20;;;;;;5074876;28;19966;-75
2021/06/15 12:57:33;;;;;;;;;;;32.50;46.00;;;;;;5075711;28;19908;-75
2021/06/15 13:00:06;;;;;;;;;;;32.80;46.80;;;;;;5054073;28;19917;-75
2021/06/15 13:02:32;;;;;;;;;;;32.80;45.70;;;;;;5074928;28;20320;-75
2021/06/15 13:04:59;;;;;;;;;;;32.90;45.30;;;;;;5062821;28;19913;-74
2021/06/15 13:07:26;;;;;;;;;;;32.50;47.30;;;;;;5060938;28;19921;-74
2021/06/15 13:09:52;;;;;;;;;;;32.20;46.30;;;;;;5061619;28;19936;-76
2021/06/15 13:12:20;;;;;;;;;;;31.60;46.80;;;;;;5076477;28;19912;-75
2021/06/15 13:14:52;;;;;;;;;;;31.50;48.00;;;;;;5077547;28;19920;-76
2021/06/15 13:17:18;;;;;;;;;;;31.30;47.30;;;;;;5078454;28;20225;-74
2021/06/15 13:19:49;;;;;;;;;;;31.70;45.90;;;;;;5071286;28;19912;-74
2021/06/15 13:22:19;;;;;;;;;;;32.00;45.80;;;;;;5060219;28;20229;-75
2021/06/15 13:24:45;;;;;;;;;;;32.70;47.30;;;;;;5062923;28;19920;-75
2021/06/15 13:27:32;;;;;;;;;;;33.00;44.00;;;;;;5061296;28;20011;-75
2021/06/15 13:30:01;;;;;;;;;;;32.60;45.00;;;;;;5078045;28;19924;-75
2021/06/15 13:32:27;;;;;;;;;;;32.80;46.00;;;;;;5075992;28;19920;-75
2021/06/15 13:34:56;;;;;;;;;;;32.80;46.30;;;;;;5066849;28;19912;-75
2021/06/15 13:37:24;;;;;;;;;;;32.50;46.20;;;;;;5059307;28;20313;-75
2021/06/15 13:39:53;;;;;;;;;;;32.60;47.90;;;;;;5059691;28;20315;-75
2021/06/15 13:42:25;;;;;;;;;;;32.90;46.30;;;;;;5074000;28;19912;-74
2021/06/15 13:45:06;;;;;;;;;;;32.60;45.20;;;;;;5065158;28;20008;-74
2021/06/15 13:47:32;;;;;;;;;;;32.90;45.70;;;;;;5049167;28;19912;-74
2021/06/15 13:49:58;;;;;;;;;;;33.60;44.70;;;;;;5078538;28;19917;-74
2021/06/15 13:52:23;;;;;;;;;;;33.70;44.70;;;;;;5069693;28;19955;-75
2021/06/15 13:54:49;;;;;;;;;;;34.20;43.70;;;;;;5048750;28;19913;-76
2021/06/15 13:57:15;;;;;;;;;;;34.00;43.70;;;;;;5061334;28;20313;-76
2021/06/15 13:59:40;;;;;;;;;;;34.00;42.00;;;;;;5062530;28;19913;-76
2021/06/15 14:02:07;;;;;;;;;;;33.70;43.30;;;;;;5069208;28;19948;-75
2021/06/15 14:04:32;;;;;;;;;;;33.40;45.00;;;;;;5063595;28;19912;-75
2021/06/15 14:06:58;;;;;;;;;;;33.60;45.80;;;;;;5064437;28;20298;-75
2021/06/15 14:09:23;;;;;;;;;;;33.90;45.50;;;;;;5073066;28;19917;-76
2021/06/15 14:11:49;;;;;;;;;;;34.30;42.50;;;;;;5068918;28;19917;-75
2021/06/15 14:14:14;;;;;;;;;;;34.20;43.50;;;;;;5058206;28;19917;-75
2021/06/15 14:16:40;;;;;;;;;;;34.10;43.30;;;;;;5071168;28;20290;-75
2021/06/15 14:19:06;;;;;;;;;;;34.10;42.60;;;;;;5060771;28;19999;-74
2021/06/15 14:21:37;;;;;;;;;;;34.70;41.50;;;;;;5071718;28;19920;-74
2021/06/15 14:24:06;;;;;;;;;;;34.50;41.40;;;;;;5072511;28;20320;-75